Terminal Aerodrome Forecast
Issued by NWS

Home | Current Version | Previous Version | Text Only | Print | Product List | Glossary On
Versions: 1 2 3 4 5 6 7 8 9 10 11 12
000
FTUS42 TJSJ 271740
TAFKPK
TAF
TKPK 271740Z 2718/2818 08011KT P6SM FEW020 SCT050
      TEMPO 2718/2721 BKN018
     FM272200 06010KT P6SM SCT030
     FM281300 07013KT P6SM SCT025
      AMD NOT SKED 2802/2811=

USA.gov is the U.S. government's official web portal to all federal, state and local government web resources and services.